Terminal Aerodrome Forecast
Issued by NWS

Home | Current Version | Previous Version | Text Only | Print | Product List | Glossary On
Versions: 1 2 3 4 5 6 7 8 9 10 11 12 13 14
000
FTUS44 KOUN 221135
TAFGAG
TAF
KGAG 221135Z 2212/2312 36018G26KT P6SM -RA BKN025
     FM221300 34018G28KT P6SM SCT025 BKN050
     FM221500 32015KT P6SM FEW250
     FM230000 30008KT P6SM SKC=

USA.gov is the U.S. government's official web portal to all federal, state and local government web resources and services.